This is the latest recevied weather packets stored in our database for station/object KB3YCK-2. If no packets are shown the sender has not sent any weather packets the latest 10 day(s).
| Time | Temp. | Humidity | Pressure | Rain* | Wind** | Luminosity | Snow |
|---|---|---|---|---|---|---|---|
| 1777762803 | 12.22° C | 64% | 1011.9 hPa | 0 mm | - | 60 W/m² | - |
| 1777762204 | 12.22° C | 62% | 1011.9 hPa | 0 mm | - | 44 W/m² | - |
| 1777760710 | 13.33° C | 61% | 1011.9 hPa | 0 mm | - | 54 W/m² | - |
| 1777753804 | 15.56° C | 56% | 1011.1 hPa | 0 mm | - | 299 W/m² | - |
| 1777752926 | 15.56° C | 61% | 1011.2 hPa | 0 mm | - | 863 W/m² | - |
| 1777750220 | 15° C | 61% | 1012 hPa | 0 mm | - | 431 W/m² | - |
| 1777749907 | 15° C | 63% | 1012 hPa | 0 mm | - | 295 W/m² | - |
| 1777748708 | 15° C | 64% | 1012.5 hPa | 0 mm | - | 846 W/m² | - |
| 1777748107 | 15° C | 64% | 1012.6 hPa | 0 mm | - | 891 W/m² | - |
| 1777747525 | 15° C | 66% | 1012.7 hPa | 0 mm | - | 819 W/m² | - |
| 1777745724 | 14.44° C | 68% | 1013 hPa | 0 mm | - | 538 W/m² | - |
| 1777742104 | 13.89° C | 71% | 1013.4 hPa | 0 mm | - | 469 W/m² | - |
| 1777741208 | 13.33° C | 72% | 1013.4 hPa | 0 mm | - | 796 W/m² | - |
| 1777740303 | 12.78° C | 75% | 1013.4 hPa | 0 mm | - | 626 W/m² | - |
| 1777740003 | 12.78° C | 71% | 1013.5 hPa | 0 mm | - | 512 W/m² | - |
| 1777739102 | 12.22° C | 73% | 1013.5 hPa | 0 mm | - | 708 W/m² | - |
| 1777738809 | 12.22° C | 74% | 1013.7 hPa | 0 mm | - | 563 W/m² | - |
| 1777735504 | 12.22° C | 74% | 1013.8 hPa | 0 mm | - | 594 W/m² | - |
| 1777732504 | 11.67° C | 77% | 1013.8 hPa | 0 mm | - | 694 W/m² | - |
| 1777731904 | 10.56° C | 77% | 1013.6 hPa | 0 mm | - | 629 W/m² | - |
| 1777731611 | 10.56° C | 79% | 1013.6 hPa | 0 mm | - | 541 W/m² | - |
| 1777731006 | 10.56° C | 77% | 1013.8 hPa | 0 mm | - | 308 W/m² | - |
| 1777729811 | 10° C | 79% | 1014 hPa | 0 mm | - | 538 W/m² | - |
| 1777729516 | 10° C | 80% | 1014 hPa | 0 mm | - | 538 W/m² | - |
| 1777728905 | 9.44° C | 81% | 1013.9 hPa | 0 mm | - | 520 W/m² | - |
* Rain latest hour (hover to see other rain measurements)
** Current wind speed in m/s (hover to see current wind gust speed)